sensor_id;sensor_type;location;lat;lon;timestamp;P1;durP1;ratioP1;P2;durP2;ratioP2
44169;SDS011;29836;52.286;9.576;2024-01-30T00:01:04;12.77;;;5.72;;
44169;SDS011;29836;52.286;9.576;2024-01-30T00:03:30;12.55;;;5.60;;
44169;SDS011;29836;52.286;9.576;2024-01-30T00:05:56;10.52;;;5.97;;
44169;SDS011;29836;52.286;9.576;2024-01-30T00:08:21;13.10;;;5.65;;
44169;SDS011;29836;52.286;9.576;2024-01-30T00:10:47;11.60;;;6.22;;
44169;SDS011;29836;52.286;9.576;2024-01-30T00:13:12;9.50;;;6.00;;
44169;SDS011;29836;52.286;9.576;2024-01-30T00:15:39;10.85;;;6.10;;
44169;SDS011;29836;52.286;9.576;2024-01-30T00:18:05;12.95;;;6.28;;
44169;SDS011;29836;52.286;9.576;2024-01-30T00:20:30;10.95;;;6.05;;
44169;SDS011;29836;52.286;9.576;2024-01-30T00:22:56;12.02;;;6.30;;
44169;SDS011;29836;52.286;9.576;2024-01-30T00:25:21;12.75;;;6.35;;
44169;SDS011;29836;52.286;9.576;2024-01-30T00:27:47;9.98;;;6.10;;
44169;SDS011;29836;52.286;9.576;2024-01-30T00:30:12;10.88;;;6.38;;
44169;SDS011;29836;52.286;9.576;2024-01-30T00:32:38;12.38;;;5.70;;
44169;SDS011;29836;52.286;9.576;2024-01-30T00:35:04;13.75;;;6.38;;
44169;SDS011;29836;52.286;9.576;2024-01-30T00:37:30;11.43;;;5.97;;
44169;SDS011;29836;52.286;9.576;2024-01-30T00:39:56;11.10;;;5.95;;
44169;SDS011;29836;52.286;9.576;2024-01-30T00:42:22;12.27;;;6.03;;
44169;SDS011;29836;52.286;9.576;2024-01-30T00:44:48;12.40;;;6.80;;
44169;SDS011;29836;52.286;9.576;2024-01-30T00:47:14;11.38;;;6.47;;
44169;SDS011;29836;52.286;9.576;2024-01-30T00:49:40;10.20;;;6.43;;
44169;SDS011;29836;52.286;9.576;2024-01-30T00:52:05;12.38;;;6.38;;
44169;SDS011;29836;52.286;9.576;2024-01-30T00:54:31;13.45;;;6.60;;
44169;SDS011;29836;52.286;9.576;2024-01-30T00:56:56;15.57;;;6.15;;
44169;SDS011;29836;52.286;9.576;2024-01-30T00:59:22;13.55;;;6.40;;
44169;SDS011;29836;52.286;9.576;2024-01-30T01:01:47;11.15;;;6.20;;
44169;SDS011;29836;52.286;9.576;2024-01-30T01:04:13;12.13;;;6.55;;
44169;SDS011;29836;52.286;9.576;2024-01-30T01:06:39;14.32;;;7.00;;
44169;SDS011;29836;52.286;9.576;2024-01-30T01:09:06;14.15;;;6.55;;
44169;SDS011;29836;52.286;9.576;2024-01-30T01:11:32;11.02;;;6.35;;
44169;SDS011;29836;52.286;9.576;2024-01-30T01:13:57;8.60;;;5.88;;
44169;SDS011;29836;52.286;9.576;2024-01-30T01:16:23;10.63;;;6.05;;
44169;SDS011;29836;52.286;9.576;2024-01-30T01:18:48;12.48;;;6.95;;
44169;SDS011;29836;52.286;9.576;2024-01-30T01:21:14;11.18;;;6.35;;
44169;SDS011;29836;52.286;9.576;2024-01-30T01:23:39;13.63;;;6.25;;
44169;SDS011;29836;52.286;9.576;2024-01-30T01:26:05;13.10;;;6.90;;
44169;SDS011;29836;52.286;9.576;2024-01-30T01:28:32;11.40;;;6.80;;
44169;SDS011;29836;52.286;9.576;2024-01-30T01:30:58;12.05;;;6.25;;
44169;SDS011;29836;52.286;9.576;2024-01-30T01:33:29;13.10;;;6.53;;
44169;SDS011;29836;52.286;9.576;2024-01-30T01:35:58;10.07;;;6.55;;
44169;SDS011;29836;52.286;9.576;2024-01-30T01:38:25;10.82;;;6.25;;
44169;SDS011;29836;52.286;9.576;2024-01-30T01:40:50;10.65;;;6.25;;
44169;SDS011;29836;52.286;9.576;2024-01-30T01:43:16;12.73;;;6.93;;
44169;SDS011;29836;52.286;9.576;2024-01-30T01:45:42;11.45;;;6.38;;
44169;SDS011;29836;52.286;9.576;2024-01-30T01:48:07;13.00;;;6.80;;
44169;SDS011;29836;52.286;9.576;2024-01-30T01:50:34;11.13;;;6.22;;
44169;SDS011;29836;52.286;9.576;2024-01-30T01:53:00;12.27;;;6.38;;
44169;SDS011;29836;52.286;9.576;2024-01-30T01:55:27;15.55;;;6.57;;
44169;SDS011;29836;52.286;9.576;2024-01-30T01:57:55;14.25;;;7.13;;
44169;SDS011;29836;52.286;9.576;2024-01-30T02:00:21;12.20;;;6.57;;
44169;SDS011;29836;52.286;9.576;2024-01-30T02:02:47;12.40;;;6.47;;
44169;SDS011;29836;52.286;9.576;2024-01-30T02:05:12;13.70;;;6.70;;
44169;SDS011;29836;52.286;9.576;2024-01-30T02:07:39;14.85;;;6.80;;
44169;SDS011;29836;52.286;9.576;2024-01-30T02:10:05;12.70;;;6.88;;
44169;SDS011;29836;52.286;9.576;2024-01-30T02:26:00;14.02;;;6.60;;
44169;SDS011;29836;52.286;9.576;2024-01-30T02:28:26;13.90;;;6.60;;
44169;SDS011;29836;52.286;9.576;2024-01-30T02:30:52;13.52;;;6.68;;
44169;SDS011;29836;52.286;9.576;2024-01-30T02:33:18;11.52;;;6.63;;
44169;SDS011;29836;52.286;9.576;2024-01-30T02:35:44;11.80;;;6.53;;
44169;SDS011;29836;52.286;9.576;2024-01-30T02:38:09;14.40;;;7.32;;
44169;SDS011;29836;52.286;9.576;2024-01-30T02:40:35;11.15;;;6.22;;
44169;SDS011;29836;52.286;9.576;2024-01-30T02:43:01;12.63;;;6.60;;
44169;SDS011;29836;52.286;9.576;2024-01-30T02:45:28;13.18;;;6.88;;
44169;SDS011;29836;52.286;9.576;2024-01-30T02:47:53;15.02;;;6.38;;
44169;SDS011;29836;52.286;9.576;2024-01-30T02:50:19;12.18;;;6.13;;
44169;SDS011;29836;52.286;9.576;2024-01-30T02:52:45;13.27;;;6.25;;
44169;SDS011;29836;52.286;9.576;2024-01-30T02:55:10;14.43;;;6.07;;
44169;SDS011;29836;52.286;9.576;2024-01-30T02:57:36;11.95;;;6.40;;
44169;SDS011;29836;52.286;9.576;2024-01-30T03:00:02;14.43;;;6.28;;
44169;SDS011;29836;52.286;9.576;2024-01-30T03:02:30;11.27;;;6.03;;
44169;SDS011;29836;52.286;9.576;2024-01-30T03:04:56;9.85;;;5.97;;
44169;SDS011;29836;52.286;9.576;2024-01-30T03:07:21;10.23;;;5.93;;
44169;SDS011;29836;52.286;9.576;2024-01-30T03:09:47;11.77;;;6.20;;
44169;SDS011;29836;52.286;9.576;2024-01-30T03:12:13;15.23;;;6.07;;
44169;SDS011;29836;52.286;9.576;2024-01-30T03:14:38;10.85;;;6.47;;
44169;SDS011;29836;52.286;9.576;2024-01-30T03:17:04;11.85;;;6.07;;
44169;SDS011;29836;52.286;9.576;2024-01-30T03:19:30;13.90;;;6.00;;
44169;SDS011;29836;52.286;9.576;2024-01-30T03:21:55;10.95;;;5.90;;
44169;SDS011;29836;52.286;9.576;2024-01-30T03:24:21;10.55;;;5.95;;
44169;SDS011;29836;52.286;9.576;2024-01-30T03:26:46;14.38;;;6.20;;
44169;SDS011;29836;52.286;9.576;2024-01-30T03:29:12;10.75;;;5.90;;
44169;SDS011;29836;52.286;9.576;2024-01-30T03:31:38;10.73;;;5.72;;
44169;SDS011;29836;52.286;9.576;2024-01-30T03:34:04;10.75;;;5.57;;
44169;SDS011;29836;52.286;9.576;2024-01-30T03:36:29;9.95;;;5.72;;
44169;SDS011;29836;52.286;9.576;2024-01-30T03:38:57;10.65;;;5.53;;
44169;SDS011;29836;52.286;9.576;2024-01-30T03:41:23;13.45;;;6.40;;
44169;SDS011;29836;52.286;9.576;2024-01-30T03:43:49;10.20;;;5.68;;
44169;SDS011;29836;52.286;9.576;2024-01-30T03:46:15;10.23;;;6.30;;
44169;SDS011;29836;52.286;9.576;2024-01-30T03:48:40;10.63;;;6.28;;
44169;SDS011;29836;52.286;9.576;2024-01-30T03:51:06;13.75;;;6.82;;
44169;SDS011;29836;52.286;9.576;2024-01-30T03:53:31;11.40;;;6.28;;
44169;SDS011;29836;52.286;9.576;2024-01-30T03:55:57;16.38;;;6.90;;
44169;SDS011;29836;52.286;9.576;2024-01-30T03:58:22;16.30;;;6.78;;
44169;SDS011;29836;52.286;9.576;2024-01-30T04:00:48;12.73;;;6.63;;
44169;SDS011;29836;52.286;9.576;2024-01-30T04:03:16;12.68;;;7.22;;
44169;SDS011;29836;52.286;9.576;2024-01-30T04:05:42;16.20;;;6.63;;
44169;SDS011;29836;52.286;9.576;2024-01-30T04:08:08;11.02;;;6.05;;
44169;SDS011;29836;52.286;9.576;2024-01-30T04:10:33;13.32;;;6.90;;
44169;SDS011;29836;52.286;9.576;2024-01-30T04:12:59;12.43;;;6.55;;
44169;SDS011;29836;52.286;9.576;2024-01-30T04:15:25;12.07;;;6.68;;
44169;SDS011;29836;52.286;9.576;2024-01-30T04:17:51;15.32;;;6.68;;
44169;SDS011;29836;52.286;9.576;2024-01-30T04:20:17;15.07;;;6.55;;
44169;SDS011;29836;52.286;9.576;2024-01-30T04:22:43;13.70;;;7.07;;
44169;SDS011;29836;52.286;9.576;2024-01-30T04:25:10;16.63;;;6.90;;
44169;SDS011;29836;52.286;9.576;2024-01-30T04:27:36;12.52;;;7.20;;
44169;SDS011;29836;52.286;9.576;2024-01-30T04:30:02;13.18;;;6.85;;
44169;SDS011;29836;52.286;9.576;2024-01-30T04:32:27;14.27;;;7.63;;
44169;SDS011;29836;52.286;9.576;2024-01-30T04:34:54;12.68;;;7.35;;
44169;SDS011;29836;52.286;9.576;2024-01-30T04:37:39;14.48;;;7.13;;
44169;SDS011;29836;52.286;9.576;2024-01-30T04:40:05;11.88;;;6.38;;
44169;SDS011;29836;52.286;9.576;2024-01-30T04:42:31;12.45;;;6.93;;
44169;SDS011;29836;52.286;9.576;2024-01-30T04:44:56;14.82;;;7.53;;
44169;SDS011;29836;52.286;9.576;2024-01-30T04:47:22;15.95;;;7.53;;
44169;SDS011;29836;52.286;9.576;2024-01-30T04:49:47;15.85;;;7.20;;
44169;SDS011;29836;52.286;9.576;2024-01-30T04:52:13;13.95;;;7.53;;
44169;SDS011;29836;52.286;9.576;2024-01-30T04:54:39;12.98;;;7.43;;
44169;SDS011;29836;52.286;9.576;2024-01-30T04:57:04;15.00;;;7.45;;
44169;SDS011;29836;52.286;9.576;2024-01-30T04:59:34;15.02;;;7.35;;
44169;SDS011;29836;52.286;9.576;2024-01-30T05:02:00;12.77;;;7.10;;
44169;SDS011;29836;52.286;9.576;2024-01-30T05:04:25;17.27;;;7.47;;
44169;SDS011;29836;52.286;9.576;2024-01-30T05:06:51;12.90;;;7.20;;
44169;SDS011;29836;52.286;9.576;2024-01-30T05:09:16;14.35;;;6.78;;
44169;SDS011;29836;52.286;9.576;2024-01-30T05:11:42;13.85;;;7.38;;
44169;SDS011;29836;52.286;9.576;2024-01-30T05:14:07;16.13;;;6.85;;
44169;SDS011;29836;52.286;9.576;2024-01-30T05:16:33;16.65;;;7.43;;
44169;SDS011;29836;52.286;9.576;2024-01-30T05:18:59;17.58;;;7.68;;
44169;SDS011;29836;52.286;9.576;2024-01-30T05:21:25;15.77;;;7.72;;
44169;SDS011;29836;52.286;9.576;2024-01-30T05:23:50;17.90;;;8.23;;
44169;SDS011;29836;52.286;9.576;2024-01-30T05:26:16;15.52;;;8.60;;
44169;SDS011;29836;52.286;9.576;2024-01-30T05:28:42;15.13;;;7.75;;
44169;SDS011;29836;52.286;9.576;2024-01-30T05:31:11;14.18;;;7.20;;
44169;SDS011;29836;52.286;9.576;2024-01-30T05:33:37;11.80;;;7.32;;
44169;SDS011;29836;52.286;9.576;2024-01-30T05:36:03;14.95;;;8.07;;
44169;SDS011;29836;52.286;9.576;2024-01-30T05:38:28;13.68;;;7.95;;
44169;SDS011;29836;52.286;9.576;2024-01-30T05:40:55;16.80;;;7.82;;
44169;SDS011;29836;52.286;9.576;2024-01-30T05:43:20;14.75;;;8.15;;
44169;SDS011;29836;52.286;9.576;2024-01-30T05:45:46;12.65;;;6.97;;
44169;SDS011;29836;52.286;9.576;2024-01-30T05:48:11;15.70;;;8.25;;
44169;SDS011;29836;52.286;9.576;2024-01-30T05:50:37;13.70;;;7.35;;
44169;SDS011;29836;52.286;9.576;2024-01-30T05:53:02;14.00;;;7.40;;
44169;SDS011;29836;52.286;9.576;2024-01-30T05:55:28;14.15;;;8.45;;
44169;SDS011;29836;52.286;9.576;2024-01-30T05:57:54;17.92;;;8.13;;
44169;SDS011;29836;52.286;9.576;2024-01-30T06:00:19;13.60;;;7.53;;
44169;SDS011;29836;52.286;9.576;2024-01-30T06:02:45;14.75;;;8.57;;
44169;SDS011;29836;52.286;9.576;2024-01-30T06:05:10;13.50;;;8.07;;
44169;SDS011;29836;52.286;9.576;2024-01-30T06:07:36;13.95;;;7.20;;
44169;SDS011;29836;52.286;9.576;2024-01-30T06:10:01;12.73;;;6.65;;
44169;SDS011;29836;52.286;9.576;2024-01-30T06:12:28;15.30;;;7.25;;
44169;SDS011;29836;52.286;9.576;2024-01-30T06:14:54;12.38;;;6.63;;
44169;SDS011;29836;52.286;9.576;2024-01-30T06:17:21;13.43;;;7.15;;
44169;SDS011;29836;52.286;9.576;2024-01-30T06:19:47;16.13;;;7.93;;
44169;SDS011;29836;52.286;9.576;2024-01-30T06:22:13;15.02;;;7.47;;
44169;SDS011;29836;52.286;9.576;2024-01-30T06:24:38;14.77;;;7.55;;
44169;SDS011;29836;52.286;9.576;2024-01-30T06:27:04;14.15;;;7.00;;
44169;SDS011;29836;52.286;9.576;2024-01-30T06:29:30;18.20;;;8.02;;
44169;SDS011;29836;52.286;9.576;2024-01-30T06:31:55;16.25;;;7.80;;
44169;SDS011;29836;52.286;9.576;2024-01-30T06:34:21;17.08;;;7.65;;
44169;SDS011;29836;52.286;9.576;2024-01-30T06:36:46;16.70;;;7.35;;
44169;SDS011;29836;52.286;9.576;2024-01-30T06:39:12;16.55;;;7.80;;
44169;SDS011;29836;52.286;9.576;2024-01-30T06:41:37;17.00;;;7.75;;
44169;SDS011;29836;52.286;9.576;2024-01-30T06:44:03;16.65;;;7.68;;
44169;SDS011;29836;52.286;9.576;2024-01-30T06:46:33;20.10;;;8.02;;
44169;SDS011;29836;52.286;9.576;2024-01-30T06:48:59;13.73;;;7.47;;
44169;SDS011;29836;52.286;9.576;2024-01-30T06:51:24;18.02;;;9.18;;
44169;SDS011;29836;52.286;9.576;2024-01-30T06:53:50;15.25;;;8.77;;
44169;SDS011;29836;52.286;9.576;2024-01-30T06:56:15;14.35;;;7.95;;
44169;SDS011;29836;52.286;9.576;2024-01-30T06:58:45;18.25;;;7.90;;
44169;SDS011;29836;52.286;9.576;2024-01-30T07:01:12;16.65;;;8.13;;
44169;SDS011;29836;52.286;9.576;2024-01-30T07:03:38;19.50;;;8.18;;
44169;SDS011;29836;52.286;9.576;2024-01-30T07:06:03;18.40;;;8.60;;
44169;SDS011;29836;52.286;9.576;2024-01-30T07:08:29;16.08;;;8.82;;
44169;SDS011;29836;52.286;9.576;2024-01-30T07:10:55;13.90;;;7.80;;
44169;SDS011;29836;52.286;9.576;2024-01-30T07:13:21;15.57;;;8.18;;
44169;SDS011;29836;52.286;9.576;2024-01-30T07:15:46;13.73;;;7.97;;
44169;SDS011;29836;52.286;9.576;2024-01-30T07:18:12;16.65;;;7.72;;
44169;SDS011;29836;52.286;9.576;2024-01-30T07:20:38;13.88;;;7.05;;
44169;SDS011;29836;52.286;9.576;2024-01-30T07:23:11;16.67;;;7.75;;
44169;SDS011;29836;52.286;9.576;2024-01-30T07:25:41;18.38;;;7.95;;
44169;SDS011;29836;52.286;9.576;2024-01-30T07:28:07;12.77;;;7.82;;
44169;SDS011;29836;52.286;9.576;2024-01-30T07:30:37;15.52;;;7.03;;
44169;SDS011;29836;52.286;9.576;2024-01-30T07:33:03;14.25;;;7.70;;
44169;SDS011;29836;52.286;9.576;2024-01-30T07:35:28;15.15;;;7.25;;
44169;SDS011;29836;52.286;9.576;2024-01-30T07:37:54;15.73;;;7.45;;
44169;SDS011;29836;52.286;9.576;2024-01-30T07:40:19;16.70;;;8.18;;
44169;SDS011;29836;52.286;9.576;2024-01-30T07:42:45;14.35;;;7.18;;
44169;SDS011;29836;52.286;9.576;2024-01-30T07:45:11;15.55;;;7.25;;
44169;SDS011;29836;52.286;9.576;2024-01-30T07:47:36;14.63;;;8.25;;
44169;SDS011;29836;52.286;9.576;2024-01-30T07:50:02;13.50;;;7.13;;
44169;SDS011;29836;52.286;9.576;2024-01-30T07:52:28;15.73;;;8.23;;
44169;SDS011;29836;52.286;9.576;2024-01-30T07:54:53;12.85;;;7.03;;
44169;SDS011;29836;52.286;9.576;2024-01-30T07:57:20;14.50;;;7.95;;
44169;SDS011;29836;52.286;9.576;2024-01-30T07:59:45;20.60;;;7.38;;
44169;SDS011;29836;52.286;9.576;2024-01-30T08:02:11;18.48;;;7.38;;
44169;SDS011;29836;52.286;9.576;2024-01-30T08:04:43;13.85;;;7.43;;
44169;SDS011;29836;52.286;9.576;2024-01-30T08:07:13;12.70;;;6.88;;
44169;SDS011;29836;52.286;9.576;2024-01-30T08:09:39;14.27;;;7.25;;
44169;SDS011;29836;52.286;9.576;2024-01-30T08:12:04;16.48;;;7.72;;
44169;SDS011;29836;52.286;9.576;2024-01-30T08:14:30;16.38;;;7.53;;
44169;SDS011;29836;52.286;9.576;2024-01-30T08:16:55;13.77;;;7.63;;
44169;SDS011;29836;52.286;9.576;2024-01-30T08:19:21;16.55;;;7.10;;
44169;SDS011;29836;52.286;9.576;2024-01-30T08:21:47;12.82;;;6.43;;
44169;SDS011;29836;52.286;9.576;2024-01-30T08:24:12;12.70;;;6.45;;
44169;SDS011;29836;52.286;9.576;2024-01-30T08:26:38;11.45;;;6.75;;
44169;SDS011;29836;52.286;9.576;2024-01-30T08:29:03;13.63;;;6.78;;
44169;SDS011;29836;52.286;9.576;2024-01-30T08:31:29;15.07;;;7.22;;
44169;SDS011;29836;52.286;9.576;2024-01-30T08:33:54;14.15;;;6.35;;
44169;SDS011;29836;52.286;9.576;2024-01-30T08:36:20;15.43;;;7.30;;
44169;SDS011;29836;52.286;9.576;2024-01-30T08:38:45;12.57;;;6.80;;
44169;SDS011;29836;52.286;9.576;2024-01-30T08:41:11;13.18;;;7.00;;
44169;SDS011;29836;52.286;9.576;2024-01-30T08:43:36;14.43;;;6.45;;
44169;SDS011;29836;52.286;9.576;2024-01-30T08:46:02;17.60;;;7.45;;
44169;SDS011;29836;52.286;9.576;2024-01-30T08:48:28;17.15;;;7.57;;
44169;SDS011;29836;52.286;9.576;2024-01-30T08:50:54;16.05;;;7.25;;
44169;SDS011;29836;52.286;9.576;2024-01-30T08:53:19;10.48;;;6.40;;
44169;SDS011;29836;52.286;9.576;2024-01-30T08:55:45;13.77;;;7.18;;
44169;SDS011;29836;52.286;9.576;2024-01-30T08:58:11;14.30;;;7.05;;
44169;SDS011;29836;52.286;9.576;2024-01-30T09:00:36;12.35;;;6.90;;
44169;SDS011;29836;52.286;9.576;2024-01-30T09:03:02;15.55;;;6.78;;
44169;SDS011;29836;52.286;9.576;2024-01-30T09:05:28;12.07;;;6.50;;
44169;SDS011;29836;52.286;9.576;2024-01-30T09:07:54;11.90;;;6.85;;
44169;SDS011;29836;52.286;9.576;2024-01-30T09:10:19;12.60;;;6.40;;
44169;SDS011;29836;52.286;9.576;2024-01-30T09:12:45;13.18;;;6.38;;
44169;SDS011;29836;52.286;9.576;2024-01-30T09:15:11;12.65;;;6.22;;
44169;SDS011;29836;52.286;9.576;2024-01-30T09:17:37;12.70;;;6.00;;
44169;SDS011;29836;52.286;9.576;2024-01-30T09:20:02;12.75;;;6.03;;
44169;SDS011;29836;52.286;9.576;2024-01-30T09:22:28;9.65;;;5.07;;
44169;SDS011;29836;52.286;9.576;2024-01-30T09:24:54;12.77;;;6.15;;
44169;SDS011;29836;52.286;9.576;2024-01-30T09:27:19;11.07;;;5.45;;
44169;SDS011;29836;52.286;9.576;2024-01-30T09:29:45;11.27;;;6.28;;
44169;SDS011;29836;52.286;9.576;2024-01-30T09:32:10;10.57;;;5.70;;
44169;SDS011;29836;52.286;9.576;2024-01-30T09:34:36;9.77;;;5.70;;
44169;SDS011;29836;52.286;9.576;2024-01-30T09:37:02;10.88;;;5.40;;
44169;SDS011;29836;52.286;9.576;2024-01-30T09:39:27;13.00;;;5.95;;
44169;SDS011;29836;52.286;9.576;2024-01-30T09:42:09;10.27;;;5.28;;
44169;SDS011;29836;52.286;9.576;2024-01-30T09:44:43;13.45;;;5.70;;
44169;SDS011;29836;52.286;9.576;2024-01-30T09:47:08;11.30;;;6.00;;
44169;SDS011;29836;52.286;9.576;2024-01-30T09:49:35;10.55;;;5.13;;
44169;SDS011;29836;52.286;9.576;2024-01-30T09:52:02;13.27;;;6.22;;
44169;SDS011;29836;52.286;9.576;2024-01-30T09:54:31;9.75;;;5.20;;
44169;SDS011;29836;52.286;9.576;2024-01-30T09:56:57;11.10;;;5.47;;
44169;SDS011;29836;52.286;9.576;2024-01-30T09:59:23;10.40;;;5.78;;
44169;SDS011;29836;52.286;9.576;2024-01-30T10:01:50;9.35;;;4.95;;
44169;SDS011;29836;52.286;9.576;2024-01-30T10:04:16;9.45;;;5.53;;
44169;SDS011;29836;52.286;9.576;2024-01-30T10:06:41;12.57;;;5.53;;
44169;SDS011;29836;52.286;9.576;2024-01-30T10:09:07;11.98;;;5.50;;
44169;SDS011;29836;52.286;9.576;2024-01-30T10:11:34;9.60;;;5.35;;
44169;SDS011;29836;52.286;9.576;2024-01-30T10:14:00;11.55;;;5.10;;
44169;SDS011;29836;52.286;9.576;2024-01-30T10:16:26;10.27;;;5.15;;
44169;SDS011;29836;52.286;9.576;2024-01-30T10:18:52;11.00;;;5.25;;
44169;SDS011;29836;52.286;9.576;2024-01-30T10:21:17;8.52;;;4.65;;
44169;SDS011;29836;52.286;9.576;2024-01-30T10:23:43;9.20;;;5.32;;
44169;SDS011;29836;52.286;9.576;2024-01-30T10:26:12;7.65;;;4.80;;
44169;SDS011;29836;52.286;9.576;2024-01-30T10:28:38;7.03;;;4.43;;
44169;SDS011;29836;52.286;9.576;2024-01-30T10:31:03;8.57;;;4.32;;
44169;SDS011;29836;52.286;9.576;2024-01-30T10:33:29;8.35;;;4.80;;
44169;SDS011;29836;52.286;9.576;2024-01-30T10:35:56;7.90;;;4.85;;
44169;SDS011;29836;52.286;9.576;2024-01-30T10:38:28;8.23;;;4.72;;
44169;SDS011;29836;52.286;9.576;2024-01-30T10:40:58;9.60;;;4.88;;
44169;SDS011;29836;52.286;9.576;2024-01-30T10:46:00;8.82;;;5.22;;
44169;SDS011;29836;52.286;9.576;2024-01-30T10:48:46;9.30;;;5.22;;
44169;SDS011;29836;52.286;9.576;2024-01-30T10:51:18;8.20;;;4.90;;
44169;SDS011;29836;52.286;9.576;2024-01-30T10:53:45;9.43;;;5.00;;
44169;SDS011;29836;52.286;9.576;2024-01-30T10:56:11;9.02;;;5.45;;
44169;SDS011;29836;52.286;9.576;2024-01-30T10:58:38;8.43;;;5.10;;
44169;SDS011;29836;52.286;9.576;2024-01-30T11:01:04;9.85;;;5.28;;
44169;SDS011;29836;52.286;9.576;2024-01-30T11:03:31;8.68;;;4.88;;
44169;SDS011;29836;52.286;9.576;2024-01-30T11:05:59;8.07;;;4.60;;
44169;SDS011;29836;52.286;9.576;2024-01-30T11:08:26;10.55;;;4.65;;
44169;SDS011;29836;52.286;9.576;2024-01-30T11:10:56;9.13;;;4.75;;
44169;SDS011;29836;52.286;9.576;2024-01-30T11:13:27;12.00;;;5.45;;
44169;SDS011;29836;52.286;9.576;2024-01-30T11:15:54;9.75;;;4.85;;
44169;SDS011;29836;52.286;9.576;2024-01-30T11:18:23;9.10;;;5.00;;
44169;SDS011;29836;52.286;9.576;2024-01-30T11:20:56;9.82;;;4.82;;
44169;SDS011;29836;52.286;9.576;2024-01-30T11:23:22;12.85;;;5.05;;
44169;SDS011;29836;52.286;9.576;2024-01-30T11:25:48;7.95;;;4.60;;
44169;SDS011;29836;52.286;9.576;2024-01-30T11:28:17;9.15;;;4.65;;
44169;SDS011;29836;52.286;9.576;2024-01-30T11:30:43;8.50;;;4.72;;
44169;SDS011;29836;52.286;9.576;2024-01-30T11:33:12;9.20;;;4.78;;
44169;SDS011;29836;52.286;9.576;2024-01-30T11:35:39;11.25;;;4.72;;
44169;SDS011;29836;52.286;9.576;2024-01-30T11:38:06;10.65;;;4.68;;
44169;SDS011;29836;52.286;9.576;2024-01-30T11:40:34;10.57;;;4.72;;
44169;SDS011;29836;52.286;9.576;2024-01-30T11:43:01;7.22;;;4.43;;
44169;SDS011;29836;52.286;9.576;2024-01-30T11:45:29;8.77;;;4.20;;
44169;SDS011;29836;52.286;9.576;2024-01-30T11:47:55;9.18;;;4.32;;
44169;SDS011;29836;52.286;9.576;2024-01-30T11:50:21;9.65;;;4.45;;
44169;SDS011;29836;52.286;9.576;2024-01-30T11:52:47;7.00;;;3.83;;
44169;SDS011;29836;52.286;9.576;2024-01-30T11:55:14;9.60;;;4.43;;
44169;SDS011;29836;52.286;9.576;2024-01-30T11:57:40;6.78;;;4.03;;
44169;SDS011;29836;52.286;9.576;2024-01-30T12:00:06;9.13;;;5.15;;
44169;SDS011;29836;52.286;9.576;2024-01-30T12:02:39;7.97;;;4.55;;
44169;SDS011;29836;52.286;9.576;2024-01-30T12:05:05;9.73;;;4.97;;
44169;SDS011;29836;52.286;9.576;2024-01-30T12:07:32;10.18;;;4.85;;
44169;SDS011;29836;52.286;9.576;2024-01-30T12:09:58;9.98;;;5.07;;
44169;SDS011;29836;52.286;9.576;2024-01-30T12:12:24;9.77;;;5.07;;
44169;SDS011;29836;52.286;9.576;2024-01-30T12:14:51;11.05;;;5.72;;
44169;SDS011;29836;52.286;9.576;2024-01-30T12:20:07;11.65;;;7.25;;
44169;SDS011;29836;52.286;9.576;2024-01-30T12:22:37;20.00;;;11.30;;
44169;SDS011;29836;52.286;9.576;2024-01-30T12:25:07;19.50;;;10.82;;
44169;SDS011;29836;52.286;9.576;2024-01-30T12:27:34;6.68;;;4.13;;
44169;SDS011;29836;52.286;9.576;2024-01-30T12:30:00;10.88;;;4.97;;
44169;SDS011;29836;52.286;9.576;2024-01-30T12:32:25;8.55;;;4.80;;
44169;SDS011;29836;52.286;9.576;2024-01-30T12:34:55;7.05;;;4.50;;
44169;SDS011;29836;52.286;9.576;2024-01-30T12:37:21;10.05;;;4.35;;
44169;SDS011;29836;52.286;9.576;2024-01-30T12:39:49;6.95;;;4.20;;
44169;SDS011;29836;52.286;9.576;2024-01-30T12:42:16;8.43;;;4.75;;
44169;SDS011;29836;52.286;9.576;2024-01-30T12:44:42;8.80;;;4.40;;
44169;SDS011;29836;52.286;9.576;2024-01-30T12:47:08;7.50;;;4.03;;
44169;SDS011;29836;52.286;9.576;2024-01-30T12:49:35;8.88;;;4.10;;
44169;SDS011;29836;52.286;9.576;2024-01-30T12:52:01;8.00;;;4.07;;
44169;SDS011;29836;52.286;9.576;2024-01-30T12:54:26;8.05;;;4.07;;
44169;SDS011;29836;52.286;9.576;2024-01-30T12:56:52;8.80;;;4.38;;
44169;SDS011;29836;52.286;9.576;2024-01-30T12:59:18;6.05;;;3.90;;
44169;SDS011;29836;52.286;9.576;2024-01-30T13:01:43;8.25;;;4.50;;
44169;SDS011;29836;52.286;9.576;2024-01-30T13:04:09;7.70;;;4.32;;
44169;SDS011;29836;52.286;9.576;2024-01-30T13:06:34;6.75;;;3.58;;
44169;SDS011;29836;52.286;9.576;2024-01-30T13:09:00;6.70;;;4.10;;
44169;SDS011;29836;52.286;9.576;2024-01-30T13:11:25;8.30;;;3.95;;
44169;SDS011;29836;52.286;9.576;2024-01-30T13:13:51;7.25;;;4.38;;
44169;SDS011;29836;52.286;9.576;2024-01-30T13:16:17;7.95;;;4.63;;
44169;SDS011;29836;52.286;9.576;2024-01-30T13:18:43;10.07;;;4.63;;
44169;SDS011;29836;52.286;9.576;2024-01-30T13:21:09;7.55;;;3.80;;
44169;SDS011;29836;52.286;9.576;2024-01-30T13:23:34;6.60;;;3.95;;
44169;SDS011;29836;52.286;9.576;2024-01-30T13:26:00;8.75;;;4.38;;
44169;SDS011;29836;52.286;9.576;2024-01-30T13:28:26;8.77;;;4.13;;
44169;SDS011;29836;52.286;9.576;2024-01-30T13:30:51;9.27;;;4.10;;
44169;SDS011;29836;52.286;9.576;2024-01-30T13:33:17;7.13;;;4.20;;
44169;SDS011;29836;52.286;9.576;2024-01-30T13:35:43;9.85;;;4.28;;
44169;SDS011;29836;52.286;9.576;2024-01-30T13:38:08;8.00;;;4.40;;
44169;SDS011;29836;52.286;9.576;2024-01-30T13:40:34;8.48;;;5.25;;
44169;SDS011;29836;52.286;9.576;2024-01-30T13:42:59;10.43;;;4.82;;
44169;SDS011;29836;52.286;9.576;2024-01-30T13:45:25;7.88;;;4.38;;
44169;SDS011;29836;52.286;9.576;2024-01-30T13:47:50;9.05;;;5.22;;
44169;SDS011;29836;52.286;9.576;2024-01-30T13:50:16;10.00;;;5.03;;
44169;SDS011;29836;52.286;9.576;2024-01-30T13:52:42;9.18;;;4.95;;
44169;SDS011;29836;52.286;9.576;2024-01-30T13:55:08;7.85;;;4.80;;
44169;SDS011;29836;52.286;9.576;2024-01-30T13:57:35;9.98;;;5.68;;
44169;SDS011;29836;52.286;9.576;2024-01-30T14:00:02;11.07;;;5.43;;
44169;SDS011;29836;52.286;9.576;2024-01-30T14:02:30;9.18;;;5.22;;
44169;SDS011;29836;52.286;9.576;2024-01-30T14:04:56;11.30;;;6.57;;
44169;SDS011;29836;52.286;9.576;2024-01-30T14:07:21;8.07;;;5.00;;
44169;SDS011;29836;52.286;9.576;2024-01-30T14:09:47;8.77;;;5.03;;
44169;SDS011;29836;52.286;9.576;2024-01-30T14:12:13;7.63;;;4.93;;
44169;SDS011;29836;52.286;9.576;2024-01-30T14:14:39;9.10;;;5.35;;
44169;SDS011;29836;52.286;9.576;2024-01-30T14:17:05;8.48;;;4.53;;
44169;SDS011;29836;52.286;9.576;2024-01-30T14:19:32;11.60;;;5.50;;
44169;SDS011;29836;52.286;9.576;2024-01-30T14:22:01;8.30;;;5.18;;
44169;SDS011;29836;52.286;9.576;2024-01-30T14:24:27;11.30;;;6.45;;
44169;SDS011;29836;52.286;9.576;2024-01-30T14:26:52;10.02;;;5.63;;
44169;SDS011;29836;52.286;9.576;2024-01-30T14:29:18;10.68;;;5.32;;
44169;SDS011;29836;52.286;9.576;2024-01-30T14:31:43;11.70;;;5.35;;
44169;SDS011;29836;52.286;9.576;2024-01-30T14:34:09;11.23;;;5.55;;
44169;SDS011;29836;52.286;9.576;2024-01-30T14:36:36;9.50;;;5.22;;
44169;SDS011;29836;52.286;9.576;2024-01-30T14:39:02;11.52;;;6.25;;
44169;SDS011;29836;52.286;9.576;2024-01-30T14:41:28;10.32;;;5.72;;
44169;SDS011;29836;52.286;9.576;2024-01-30T14:43:54;11.40;;;5.35;;
44169;SDS011;29836;52.286;9.576;2024-01-30T14:46:20;10.07;;;5.22;;
44169;SDS011;29836;52.286;9.576;2024-01-30T14:48:47;9.45;;;5.63;;
44169;SDS011;29836;52.286;9.576;2024-01-30T14:51:12;11.60;;;5.60;;